Friday, November 16, 2018, 1:12 AM GMT
Back to Local

CYUL, Montreal / Pierre Elliot Trudeau International Airport, Que

Location: , , Canada Lat: 45.467
Local Time: 1:12 AM GMT ( 1:12 GMT) Lon: -73.75
Time Zone: GMT Elev: 101 ft

Show me the last for .
Show Decoded

2018-11-16 00:00 METAR CYUL 160000Z 05008KT 15SM OVC190 M05/M12 A3032 RMK AC8 SLP271 =
2018-11-15 23:00 METAR CYUL 152300Z 07006KT 15SM OVC210 M04/M12 A3034 RMK CS8 SLP277 =
2018-11-15 22:00 METAR CYUL 152200Z 08009KT 15SM OVC210 M05/M12 A3036 RMK CS8 SLP286 =
2018-11-15 21:00 METAR CYUL 152100Z 08009KT 30SM OVC180 M05/M12 A3040 RMK AC8 SLP299 =
2018-11-15 20:00 METAR CYUL 152000Z 07010KT 15SM FEW180 OVC200 M05/M13 A3042 RMK AC2CS6 SLP306 =
2018-11-15 19:00 METAR CYUL 151900Z 10005KT 15SM OVC190 M05/M13 A3044 RMK CS8 SLP313 =
2018-11-15 18:00 METAR CYUL 151800Z 13008KT 060V140 15SM OVC190 M05/M13 A3047 RMK CS8 PRESFR
                 SLP324 =
2018-11-15 17:00 METAR CYUL 151700Z 08007KT 040V190 15SM OVC220 M06/M13 A3052 RMK CS8 PRESFR
                 SLP340 =
2018-11-15 16:00 METAR CYUL 151600Z 09006KT 30SM FEW025 OVC220 M07/M13 A3057 RMK CF1CS8 CF TR
                 SLP355 =
2018-11-15 15:00 METAR CYUL 151500Z 09007KT 30SM FEW020 OVC220 M07/M12 A3058 RMK SC1CS8 SC TR
                 SLP359 =
2018-11-15 14:00 METAR CYUL 151400Z 04005KT 30SM FEW020 OVC250 M08/M13 A3060 RMK SC1CI7 SLP368 =
2018-11-15 13:00 METAR CYUL 151300Z 03007KT 30SM FEW020 OVC250 M10/M13 A3062 RMK SC1CI7 SLP373 =
2018-11-15 12:00 METAR CYUL 151200Z 35004KT 30SM FEW020 BKN250 M11/M14 A3063 RMK SC1CI6 SLP375 =
2018-11-15 11:00 METAR CYUL 151100Z 33005KT 15SM FEW018 BKN240 M10/M14 A3064 RMK SC2CS4 SLP379 =
2018-11-15 10:00 METAR CYUL 151000Z VRB02KT 15SM FEW015 SCT240 M10/M13 A3063 RMK SC1CS3 SLP378 =
2018-11-15 09:00 METAR CYUL 150900Z 25002KT 15SM FEW015 SCT240 M10/M14 A3063 RMK SC1CS3 SC TR
                 SLP376 =
2018-11-15 08:00 METAR CYUL 150800Z 27004KT 15SM FEW015 M10/M14 A3063 RMK SC1 SC TR SLP378 =
2018-11-15 07:00 METAR CYUL 150700Z 25003KT 15SM FEW015 M10/M14 A3062 RMK SC1 SC TR SLP374 =
2018-11-15 06:00 METAR CYUL 150600Z 24003KT 15SM FEW015 M10/M14 A3060 RMK CF1 CF TR SLP368 =
2018-11-15 05:00 METAR CYUL 150500Z 28003KT 15SM SKC M10/M15 A3060 RMK SLP368 =
2018-11-15 04:00 METAR CYUL 150400Z 25006KT 15SM SKC M10/M15 A3061 RMK SLP371 =
2018-11-15 03:00 METAR CYUL 150300Z 27007KT 15SM FEW015 M09/M16 A3060 RMK CF1 CF TR SLP365 =
2018-11-15 02:00 METAR CYUL 150200Z 27007KT 15SM FEW010 M09/M16 A3059 RMK SF1 SF TR SLP364 =

Support USWX by starting your Amazon purchase here.